sensor_id;sensor_type;location;lat;lon;timestamp;temperature;humidity
18577;DHT22;9418;52.694;13.294;2023-06-14T00:00:44;13.20;79.60
18577;DHT22;9418;52.694;13.294;2023-06-14T00:03:11;13.10;76.50
18577;DHT22;9418;52.694;13.294;2023-06-14T00:05:42;13.10;70.30
18577;DHT22;9418;52.694;13.294;2023-06-14T00:08:10;13.00;67.20
18577;DHT22;9418;52.694;13.294;2023-06-14T00:10:38;13.00;55.30
18577;DHT22;9418;52.694;13.294;2023-06-14T00:13:07;12.90;45.20
18577;DHT22;9418;52.694;13.294;2023-06-14T00:15:34;12.80;31.80
18577;DHT22;9418;52.694;13.294;2023-06-14T00:18:01;12.80;36.30
18577;DHT22;9418;52.694;13.294;2023-06-14T00:20:28;12.80;31.40
18577;DHT22;9418;52.694;13.294;2023-06-14T00:22:56;12.80;36.80
18577;DHT22;9418;52.694;13.294;2023-06-14T00:25:23;12.70;25.70
18577;DHT22;9418;52.694;13.294;2023-06-14T00:27:52;12.70;88.20
18577;DHT22;9418;52.694;13.294;2023-06-14T00:30:19;12.60;99.90
18577;DHT22;9418;52.694;13.294;2023-06-14T00:32:45;12.50;99.90
18577;DHT22;9418;52.694;13.294;2023-06-14T00:35:12;12.60;99.90
18577;DHT22;9418;52.694;13.294;2023-06-14T00:37:39;12.50;99.90
18577;DHT22;9418;52.694;13.294;2023-06-14T00:40:06;12.40;99.90
18577;DHT22;9418;52.694;13.294;2023-06-14T00:42:33;12.40;99.90
18577;DHT22;9418;52.694;13.294;2023-06-14T00:45:01;12.30;99.90
18577;DHT22;9418;52.694;13.294;2023-06-14T00:47:27;12.30;99.90
18577;DHT22;9418;52.694;13.294;2023-06-14T00:49:55;12.30;99.90
18577;DHT22;9418;52.694;13.294;2023-06-14T00:52:22;12.40;99.90
18577;DHT22;9418;52.694;13.294;2023-06-14T00:54:49;12.30;99.90
18577;DHT22;9418;52.694;13.294;2023-06-14T00:57:16;12.20;99.90
18577;DHT22;9418;52.694;13.294;2023-06-14T00:59:45;12.20;99.90
18577;DHT22;9418;52.694;13.294;2023-06-14T01:02:14;12.20;99.90
18577;DHT22;9418;52.694;13.294;2023-06-14T01:04:41;12.10;99.90
18577;DHT22;9418;52.694;13.294;2023-06-14T01:07:14;12.00;99.90
18577;DHT22;9418;52.694;13.294;2023-06-14T01:09:48;12.00;99.90
18577;DHT22;9418;52.694;13.294;2023-06-14T01:12:24;12.00;99.90
18577;DHT22;9418;52.694;13.294;2023-06-14T01:14:51;12.00;99.90
18577;DHT22;9418;52.694;13.294;2023-06-14T01:17:22;11.90;99.90
18577;DHT22;9418;52.694;13.294;2023-06-14T01:19:51;11.80;99.90
18577;DHT22;9418;52.694;13.294;2023-06-14T01:22:23;11.80;99.90
18577;DHT22;9418;52.694;13.294;2023-06-14T01:24:52;11.80;99.90
18577;DHT22;9418;52.694;13.294;2023-06-14T01:27:21;11.90;99.90
18577;DHT22;9418;52.694;13.294;2023-06-14T01:29:49;11.90;99.90
18577;DHT22;9418;52.694;13.294;2023-06-14T01:32:17;11.80;99.90
18577;DHT22;9418;52.694;13.294;2023-06-14T01:34:44;11.80;99.90
18577;DHT22;9418;52.694;13.294;2023-06-14T01:37:11;11.90;99.90
18577;DHT22;9418;52.694;13.294;2023-06-14T01:39:39;11.80;99.90
18577;DHT22;9418;52.694;13.294;2023-06-14T01:42:07;11.80;99.90
18577;DHT22;9418;52.694;13.294;2023-06-14T01:44:34;11.60;99.90
18577;DHT22;9418;52.694;13.294;2023-06-14T01:47:01;11.50;99.90
18577;DHT22;9418;52.694;13.294;2023-06-14T01:49:28;11.40;99.90
18577;DHT22;9418;52.694;13.294;2023-06-14T01:51:54;11.40;99.90
18577;DHT22;9418;52.694;13.294;2023-06-14T01:54:21;11.40;99.90
18577;DHT22;9418;52.694;13.294;2023-06-14T01:56:48;11.40;99.90
18577;DHT22;9418;52.694;13.294;2023-06-14T01:59:16;11.40;99.90
18577;DHT22;9418;52.694;13.294;2023-06-14T02:01:42;11.40;99.90
18577;DHT22;9418;52.694;13.294;2023-06-14T02:04:09;11.30;99.90
18577;DHT22;9418;52.694;13.294;2023-06-14T02:06:36;11.40;99.90
18577;DHT22;9418;52.694;13.294;2023-06-14T02:09:02;11.40;99.90
18577;DHT22;9418;52.694;13.294;2023-06-14T02:11:29;11.40;99.90
18577;DHT22;9418;52.694;13.294;2023-06-14T02:13:56;11.40;99.90
18577;DHT22;9418;52.694;13.294;2023-06-14T02:16:26;11.40;99.90
18577;DHT22;9418;52.694;13.294;2023-06-14T02:18:54;11.40;99.90
18577;DHT22;9418;52.694;13.294;2023-06-14T02:21:22;11.40;99.90
18577;DHT22;9418;52.694;13.294;2023-06-14T02:23:48;11.30;99.90
18577;DHT22;9418;52.694;13.294;2023-06-14T02:26:15;11.30;99.90
18577;DHT22;9418;52.694;13.294;2023-06-14T02:28:42;11.20;99.90
18577;DHT22;9418;52.694;13.294;2023-06-14T02:31:08;11.10;99.90
18577;DHT22;9418;52.694;13.294;2023-06-14T02:33:36;11.10;99.90
18577;DHT22;9418;52.694;13.294;2023-06-14T02:36:03;11.10;99.90
18577;DHT22;9418;52.694;13.294;2023-06-14T02:38:30;11.10;99.90
18577;DHT22;9418;52.694;13.294;2023-06-14T02:40:57;11.20;99.90
18577;DHT22;9418;52.694;13.294;2023-06-14T02:43:24;11.10;99.90
18577;DHT22;9418;52.694;13.294;2023-06-14T02:45:51;11.10;99.90
18577;DHT22;9418;52.694;13.294;2023-06-14T02:48:17;11.20;99.90
18577;DHT22;9418;52.694;13.294;2023-06-14T02:50:45;11.20;99.90
18577;DHT22;9418;52.694;13.294;2023-06-14T02:53:12;11.10;99.90
18577;DHT22;9418;52.694;13.294;2023-06-14T02:55:38;11.10;99.90
18577;DHT22;9418;52.694;13.294;2023-06-14T02:58:05;11.10;99.90
18577;DHT22;9418;52.694;13.294;2023-06-14T03:00:32;11.10;99.90
18577;DHT22;9418;52.694;13.294;2023-06-14T03:03:00;11.10;99.90
18577;DHT22;9418;52.694;13.294;2023-06-14T03:05:27;11.10;99.90
18577;DHT22;9418;52.694;13.294;2023-06-14T03:07:55;11.00;99.90
18577;DHT22;9418;52.694;13.294;2023-06-14T03:10:22;11.00;99.90
18577;DHT22;9418;52.694;13.294;2023-06-14T03:12:48;11.00;99.90
18577;DHT22;9418;52.694;13.294;2023-06-14T03:15:17;11.00;99.90
18577;DHT22;9418;52.694;13.294;2023-06-14T03:17:44;11.00;99.90
18577;DHT22;9418;52.694;13.294;2023-06-14T03:20:11;11.00;99.90
18577;DHT22;9418;52.694;13.294;2023-06-14T03:22:37;11.10;99.90
18577;DHT22;9418;52.694;13.294;2023-06-14T03:25:07;11.10;99.90
18577;DHT22;9418;52.694;13.294;2023-06-14T03:27:34;11.10;99.90
18577;DHT22;9418;52.694;13.294;2023-06-14T03:30:01;11.00;99.90
18577;DHT22;9418;52.694;13.294;2023-06-14T03:32:28;11.10;99.90
18577;DHT22;9418;52.694;13.294;2023-06-14T03:34:58;11.10;99.90
18577;DHT22;9418;52.694;13.294;2023-06-14T03:37:25;11.10;99.90
18577;DHT22;9418;52.694;13.294;2023-06-14T03:39:51;11.10;99.90
18577;DHT22;9418;52.694;13.294;2023-06-14T03:42:19;11.10;99.90
18577;DHT22;9418;52.694;13.294;2023-06-14T03:44:46;11.10;99.90
18577;DHT22;9418;52.694;13.294;2023-06-14T03:47:12;11.10;99.90
18577;DHT22;9418;52.694;13.294;2023-06-14T03:49:39;11.20;99.90
18577;DHT22;9418;52.694;13.294;2023-06-14T03:52:06;11.20;99.90
18577;DHT22;9418;52.694;13.294;2023-06-14T03:54:33;11.30;99.90
18577;DHT22;9418;52.694;13.294;2023-06-14T03:56:59;11.30;99.90
18577;DHT22;9418;52.694;13.294;2023-06-14T03:59:27;11.40;99.90
18577;DHT22;9418;52.694;13.294;2023-06-14T04:01:54;11.40;99.90
18577;DHT22;9418;52.694;13.294;2023-06-14T04:04:21;11.50;99.90
18577;DHT22;9418;52.694;13.294;2023-06-14T04:06:54;11.60;99.90
18577;DHT22;9418;52.694;13.294;2023-06-14T04:09:22;11.70;99.90
18577;DHT22;9418;52.694;13.294;2023-06-14T04:11:50;11.70;99.90
18577;DHT22;9418;52.694;13.294;2023-06-14T04:14:16;11.80;99.90
18577;DHT22;9418;52.694;13.294;2023-06-14T04:16:44;11.90;99.90
18577;DHT22;9418;52.694;13.294;2023-06-14T04:19:11;12.00;99.90
18577;DHT22;9418;52.694;13.294;2023-06-14T04:21:37;12.10;99.90
18577;DHT22;9418;52.694;13.294;2023-06-14T04:24:04;12.10;99.90
18577;DHT22;9418;52.694;13.294;2023-06-14T04:26:32;12.20;99.90
18577;DHT22;9418;52.694;13.294;2023-06-14T04:28:59;12.30;99.90
18577;DHT22;9418;52.694;13.294;2023-06-14T04:31:27;12.40;99.90
18577;DHT22;9418;52.694;13.294;2023-06-14T04:33:56;12.50;99.90
18577;DHT22;9418;52.694;13.294;2023-06-14T04:36:22;12.50;99.90
18577;DHT22;9418;52.694;13.294;2023-06-14T04:38:50;12.60;99.90
18577;DHT22;9418;52.694;13.294;2023-06-14T04:41:20;12.70;99.90
18577;DHT22;9418;52.694;13.294;2023-06-14T04:43:48;12.80;99.90
18577;DHT22;9418;52.694;13.294;2023-06-14T04:46:14;12.90;99.90
18577;DHT22;9418;52.694;13.294;2023-06-14T04:48:41;13.00;99.90
18577;DHT22;9418;52.694;13.294;2023-06-14T04:51:09;13.10;99.90
18577;DHT22;9418;52.694;13.294;2023-06-14T04:53:36;13.20;99.90
18577;DHT22;9418;52.694;13.294;2023-06-14T04:56:03;13.30;99.90
18577;DHT22;9418;52.694;13.294;2023-06-14T04:58:30;13.40;99.90
18577;DHT22;9418;52.694;13.294;2023-06-14T05:00:57;13.40;99.90
18577;DHT22;9418;52.694;13.294;2023-06-14T05:03:24;13.40;99.90
18577;DHT22;9418;52.694;13.294;2023-06-14T05:05:51;13.50;99.90
18577;DHT22;9418;52.694;13.294;2023-06-14T05:08:20;13.50;99.90
18577;DHT22;9418;52.694;13.294;2023-06-14T05:10:48;13.60;99.90
18577;DHT22;9418;52.694;13.294;2023-06-14T05:13:15;13.70;99.90
18577;DHT22;9418;52.694;13.294;2023-06-14T05:15:41;13.80;99.90
18577;DHT22;9418;52.694;13.294;2023-06-14T05:18:08;13.80;99.90
18577;DHT22;9418;52.694;13.294;2023-06-14T05:20:35;14.00;99.90
18577;DHT22;9418;52.694;13.294;2023-06-14T05:23:02;14.10;99.90
18577;DHT22;9418;52.694;13.294;2023-06-14T05:25:30;14.10;99.90
18577;DHT22;9418;52.694;13.294;2023-06-14T05:27:56;14.20;99.90
18577;DHT22;9418;52.694;13.294;2023-06-14T05:30:23;14.30;99.90
18577;DHT22;9418;52.694;13.294;2023-06-14T05:32:50;14.30;99.90
18577;DHT22;9418;52.694;13.294;2023-06-14T05:35:18;14.40;99.90
18577;DHT22;9418;52.694;13.294;2023-06-14T05:37:44;14.50;99.90
18577;DHT22;9418;52.694;13.294;2023-06-14T05:40:11;14.60;99.90
18577;DHT22;9418;52.694;13.294;2023-06-14T05:42:39;14.60;99.90
18577;DHT22;9418;52.694;13.294;2023-06-14T05:45:07;14.80;99.90
18577;DHT22;9418;52.694;13.294;2023-06-14T05:47:33;14.80;99.90
18577;DHT22;9418;52.694;13.294;2023-06-14T05:50:00;14.90;99.90
18577;DHT22;9418;52.694;13.294;2023-06-14T05:52:27;14.90;99.90
18577;DHT22;9418;52.694;13.294;2023-06-14T05:54:53;14.90;99.90
18577;DHT22;9418;52.694;13.294;2023-06-14T05:57:20;14.90;99.90
18577;DHT22;9418;52.694;13.294;2023-06-14T05:59:47;15.00;99.90
18577;DHT22;9418;52.694;13.294;2023-06-14T06:02:15;15.10;99.90
18577;DHT22;9418;52.694;13.294;2023-06-14T06:04:42;15.20;99.90
18577;DHT22;9418;52.694;13.294;2023-06-14T06:07:08;15.20;99.90
18577;DHT22;9418;52.694;13.294;2023-06-14T06:09:35;15.30;99.90
18577;DHT22;9418;52.694;13.294;2023-06-14T06:12:02;15.30;99.90
18577;DHT22;9418;52.694;13.294;2023-06-14T06:14:29;15.40;99.90
18577;DHT22;9418;52.694;13.294;2023-06-14T06:16:56;15.40;99.90
18577;DHT22;9418;52.694;13.294;2023-06-14T06:19:23;15.50;99.90
18577;DHT22;9418;52.694;13.294;2023-06-14T06:21:50;15.50;99.90
18577;DHT22;9418;52.694;13.294;2023-06-14T06:24:16;15.60;99.90
18577;DHT22;9418;52.694;13.294;2023-06-14T06:26:43;15.70;99.90
18577;DHT22;9418;52.694;13.294;2023-06-14T06:29:09;15.70;99.90
18577;DHT22;9418;52.694;13.294;2023-06-14T06:31:37;15.70;99.90
18577;DHT22;9418;52.694;13.294;2023-06-14T06:34:05;15.80;99.90
18577;DHT22;9418;52.694;13.294;2023-06-14T06:36:31;15.80;99.90
18577;DHT22;9418;52.694;13.294;2023-06-14T06:38:58;15.90;99.90
18577;DHT22;9418;52.694;13.294;2023-06-14T06:41:24;16.00;99.90
18577;DHT22;9418;52.694;13.294;2023-06-14T06:43:52;16.10;99.90
18577;DHT22;9418;52.694;13.294;2023-06-14T06:46:18;16.20;99.90
18577;DHT22;9418;52.694;13.294;2023-06-14T06:48:45;16.30;99.90
18577;DHT22;9418;52.694;13.294;2023-06-14T06:51:13;16.40;88.70
18577;DHT22;9418;52.694;13.294;2023-06-14T06:53:42;16.50;24.30
18577;DHT22;9418;52.694;13.294;2023-06-14T06:56:09;16.50;32.90
18577;DHT22;9418;52.694;13.294;2023-06-14T06:58:36;16.40;34.90
18577;DHT22;9418;52.694;13.294;2023-06-14T07:01:02;16.40;27.90
18577;DHT22;9418;52.694;13.294;2023-06-14T07:03:29;16.50;20.60
18577;DHT22;9418;52.694;13.294;2023-06-14T07:05:56;16.60;23.40
18577;DHT22;9418;52.694;13.294;2023-06-14T07:08:24;16.70;23.70
18577;DHT22;9418;52.694;13.294;2023-06-14T07:10:51;16.80;33.60
18577;DHT22;9418;52.694;13.294;2023-06-14T07:13:17;16.90;41.80
18577;DHT22;9418;52.694;13.294;2023-06-14T07:15:44;16.90;51.20
18577;DHT22;9418;52.694;13.294;2023-06-14T07:18:11;16.90;56.70
18577;DHT22;9418;52.694;13.294;2023-06-14T07:20:37;17.00;50.00
18577;DHT22;9418;52.694;13.294;2023-06-14T07:23:05;17.00;54.50
18577;DHT22;9418;52.694;13.294;2023-06-14T07:25:33;17.10;57.00
18577;DHT22;9418;52.694;13.294;2023-06-14T07:28:00;17.20;43.90
18577;DHT22;9418;52.694;13.294;2023-06-14T07:30:26;17.40;57.80
18577;DHT22;9418;52.694;13.294;2023-06-14T07:32:55;17.50;66.90
18577;DHT22;9418;52.694;13.294;2023-06-14T07:35:22;17.70;69.10
18577;DHT22;9418;52.694;13.294;2023-06-14T07:37:48;17.90;71.30
18577;DHT22;9418;52.694;13.294;2023-06-14T07:40:15;18.00;79.60
18577;DHT22;9418;52.694;13.294;2023-06-14T07:42:43;18.00;84.80
18577;DHT22;9418;52.694;13.294;2023-06-14T07:45:11;18.00;99.90
18577;DHT22;9418;52.694;13.294;2023-06-14T07:47:38;18.10;99.90
18577;DHT22;9418;52.694;13.294;2023-06-14T07:50:05;18.00;99.90
18577;DHT22;9418;52.694;13.294;2023-06-14T07:52:32;18.30;99.90
18577;DHT22;9418;52.694;13.294;2023-06-14T07:54:58;18.40;99.90
18577;DHT22;9418;52.694;13.294;2023-06-14T07:57:26;18.50;99.90
18577;DHT22;9418;52.694;13.294;2023-06-14T07:59:55;18.60;99.90
18577;DHT22;9418;52.694;13.294;2023-06-14T08:02:21;18.30;99.90
18577;DHT22;9418;52.694;13.294;2023-06-14T08:04:48;18.50;99.90
18577;DHT22;9418;52.694;13.294;2023-06-14T08:07:14;18.50;99.90
18577;DHT22;9418;52.694;13.294;2023-06-14T08:09:41;18.60;99.90
18577;DHT22;9418;52.694;13.294;2023-06-14T08:12:08;18.70;99.90
18577;DHT22;9418;52.694;13.294;2023-06-14T08:14:36;18.80;42.30
18577;DHT22;9418;52.694;13.294;2023-06-14T08:17:04;19.00;46.80
18577;DHT22;9418;52.694;13.294;2023-06-14T08:19:31;19.10;54.80
18577;DHT22;9418;52.694;13.294;2023-06-14T08:21:57;19.20;54.10
18577;DHT22;9418;52.694;13.294;2023-06-14T08:24:24;19.40;72.80
18577;DHT22;9418;52.694;13.294;2023-06-14T08:26:52;19.20;90.80
18577;DHT22;9418;52.694;13.294;2023-06-14T08:29:18;19.40;99.50
18577;DHT22;9418;52.694;13.294;2023-06-14T08:31:46;19.40;99.90
18577;DHT22;9418;52.694;13.294;2023-06-14T08:34:14;19.50;99.90
18577;DHT22;9418;52.694;13.294;2023-06-14T08:36:41;19.70;99.90
18577;DHT22;9418;52.694;13.294;2023-06-14T08:39:07;19.80;99.90
18577;DHT22;9418;52.694;13.294;2023-06-14T08:41:35;19.90;99.90
18577;DHT22;9418;52.694;13.294;2023-06-14T08:44:02;20.00;99.90
18577;DHT22;9418;52.694;13.294;2023-06-14T08:46:32;20.10;99.90
18577;DHT22;9418;52.694;13.294;2023-06-14T08:49:01;19.90;99.90
18577;DHT22;9418;52.694;13.294;2023-06-14T08:51:31;19.50;99.90
18577;DHT22;9418;52.694;13.294;2023-06-14T08:54:00;19.60;99.90
18577;DHT22;9418;52.694;13.294;2023-06-14T08:56:27;19.60;99.90
18577;DHT22;9418;52.694;13.294;2023-06-14T08:58:55;19.70;99.90
18577;DHT22;9418;52.694;13.294;2023-06-14T09:01:22;19.80;99.90
18577;DHT22;9418;52.694;13.294;2023-06-14T09:03:49;19.80;99.90
18577;DHT22;9418;52.694;13.294;2023-06-14T09:06:17;19.70;99.90
18577;DHT22;9418;52.694;13.294;2023-06-14T09:08:46;19.80;99.90
18577;DHT22;9418;52.694;13.294;2023-06-14T09:11:14;19.70;99.90
18577;DHT22;9418;52.694;13.294;2023-06-14T09:13:42;19.70;99.90
18577;DHT22;9418;52.694;13.294;2023-06-14T09:16:08;19.70;99.90
18577;DHT22;9418;52.694;13.294;2023-06-14T09:18:36;19.80;99.90
18577;DHT22;9418;52.694;13.294;2023-06-14T09:21:02;19.80;99.90
18577;DHT22;9418;52.694;13.294;2023-06-14T09:23:29;19.80;99.90
18577;DHT22;9418;52.694;13.294;2023-06-14T09:26:00;19.90;99.90
18577;DHT22;9418;52.694;13.294;2023-06-14T09:28:27;20.00;99.90
18577;DHT22;9418;52.694;13.294;2023-06-14T09:30:54;20.10;99.90
18577;DHT22;9418;52.694;13.294;2023-06-14T09:33:21;20.20;99.90
18577;DHT22;9418;52.694;13.294;2023-06-14T09:35:51;20.30;99.90
18577;DHT22;9418;52.694;13.294;2023-06-14T09:38:18;20.40;99.90
18577;DHT22;9418;52.694;13.294;2023-06-14T09:40:45;20.50;99.90
18577;DHT22;9418;52.694;13.294;2023-06-14T09:43:13;20.90;99.90
18577;DHT22;9418;52.694;13.294;2023-06-14T09:45:39;21.10;99.90
18577;DHT22;9418;52.694;13.294;2023-06-14T09:48:06;21.30;99.90
18577;DHT22;9418;52.694;13.294;2023-06-14T09:50:33;21.30;99.90
18577;DHT22;9418;52.694;13.294;2023-06-14T09:53:03;21.40;99.90
18577;DHT22;9418;52.694;13.294;2023-06-14T09:55:31;21.40;99.90
18577;DHT22;9418;52.694;13.294;2023-06-14T09:58:00;21.00;99.90
18577;DHT22;9418;52.694;13.294;2023-06-14T10:00:31;21.00;99.90
18577;DHT22;9418;52.694;13.294;2023-06-14T10:03:05;20.90;99.90
18577;DHT22;9418;52.694;13.294;2023-06-14T10:05:35;21.00;99.90
18577;DHT22;9418;52.694;13.294;2023-06-14T10:08:07;21.00;99.90
18577;DHT22;9418;52.694;13.294;2023-06-14T10:10:34;20.90;99.90
18577;DHT22;9418;52.694;13.294;2023-06-14T10:13:01;20.80;99.90
18577;DHT22;9418;52.694;13.294;2023-06-14T10:15:34;20.80;99.90
18577;DHT22;9418;52.694;13.294;2023-06-14T10:18:10;20.50;99.90
18577;DHT22;9418;52.694;13.294;2023-06-14T10:20:45;20.50;99.90
18577;DHT22;9418;52.694;13.294;2023-06-14T10:23:18;20.50;99.90
18577;DHT22;9418;52.694;13.294;2023-06-14T10:25:49;20.70;99.90
18577;DHT22;9418;52.694;13.294;2023-06-14T10:28:17;20.70;99.90
18577;DHT22;9418;52.694;13.294;2023-06-14T10:31:06;20.80;99.90
18577;DHT22;9418;52.694;13.294;2023-06-14T10:33:34;20.90;99.90
18577;DHT22;9418;52.694;13.294;2023-06-14T10:36:08;20.90;99.90
18577;DHT22;9418;52.694;13.294;2023-06-14T10:38:36;21.00;99.90
18577;DHT22;9418;52.694;13.294;2023-06-14T10:41:04;21.10;99.90
18577;DHT22;9418;52.694;13.294;2023-06-14T10:43:31;21.10;99.90
18577;DHT22;9418;52.694;13.294;2023-06-14T10:46:18;21.10;99.90
18577;DHT22;9418;52.694;13.294;2023-06-14T10:48:48;21.50;99.90
18577;DHT22;9418;52.694;13.294;2023-06-14T10:51:16;21.30;99.90
18577;DHT22;9418;52.694;13.294;2023-06-14T10:53:46;21.40;99.90
18577;DHT22;9418;52.694;13.294;2023-06-14T10:56:23;21.30;99.90
18577;DHT22;9418;52.694;13.294;2023-06-14T10:58:51;21.60;99.90
18577;DHT22;9418;52.694;13.294;2023-06-14T11:01:28;21.90;99.90
18577;DHT22;9418;52.694;13.294;2023-06-14T11:04:06;22.30;99.90
18577;DHT22;9418;52.694;13.294;2023-06-14T11:06:45;22.00;99.90
18577;DHT22;9418;52.694;13.294;2023-06-14T11:09:42;22.30;99.90
18577;DHT22;9418;52.694;13.294;2023-06-14T11:12:15;23.40;99.90
18577;DHT22;9418;52.694;13.294;2023-06-14T11:14:42;23.50;99.90
18577;DHT22;9418;52.694;13.294;2023-06-14T11:17:12;23.70;99.90
18577;DHT22;9418;52.694;13.294;2023-06-14T11:19:38;23.80;99.90
18577;DHT22;9418;52.694;13.294;2023-06-14T11:22:05;23.60;99.90
18577;DHT22;9418;52.694;13.294;2023-06-14T11:24:32;23.90;99.90
18577;DHT22;9418;52.694;13.294;2023-06-14T11:26:59;23.50;99.90
18577;DHT22;9418;52.694;13.294;2023-06-14T11:29:25;23.90;99.90
18577;DHT22;9418;52.694;13.294;2023-06-14T11:31:52;23.90;99.90
18577;DHT22;9418;52.694;13.294;2023-06-14T11:34:20;24.40;99.90
18577;DHT22;9418;52.694;13.294;2023-06-14T11:36:47;24.80;99.90
18577;DHT22;9418;52.694;13.294;2023-06-14T11:39:13;24.90;99.90
18577;DHT22;9418;52.694;13.294;2023-06-14T11:41:42;24.10;99.90
18577;DHT22;9418;52.694;13.294;2023-06-14T11:44:09;24.50;99.90
18577;DHT22;9418;52.694;13.294;2023-06-14T11:46:36;24.70;99.90
18577;DHT22;9418;52.694;13.294;2023-06-14T11:49:04;25.00;99.90
18577;DHT22;9418;52.694;13.294;2023-06-14T11:51:34;25.00;99.90
18577;DHT22;9418;52.694;13.294;2023-06-14T11:54:01;25.20;99.90
18577;DHT22;9418;52.694;13.294;2023-06-14T11:56:29;25.10;99.90
18577;DHT22;9418;52.694;13.294;2023-06-14T11:58:55;25.30;94.60
18577;DHT22;9418;52.694;13.294;2023-06-14T12:01:23;25.00;99.90
18577;DHT22;9418;52.694;13.294;2023-06-14T12:03:53;25.20;99.90
18577;DHT22;9418;52.694;13.294;2023-06-14T12:06:26;24.90;99.90
18577;DHT22;9418;52.694;13.294;2023-06-14T12:08:56;24.50;98.00
18577;DHT22;9418;52.694;13.294;2023-06-14T12:11:23;24.70;92.70
18577;DHT22;9418;52.694;13.294;2023-06-14T12:13:50;24.90;99.90
18577;DHT22;9418;52.694;13.294;2023-06-14T12:16:16;25.20;98.50
18577;DHT22;9418;52.694;13.294;2023-06-14T12:18:43;25.50;99.90
18577;DHT22;9418;52.694;13.294;2023-06-14T12:21:11;25.50;95.00
18577;DHT22;9418;52.694;13.294;2023-06-14T12:23:45;25.70;84.50
18577;DHT22;9418;52.694;13.294;2023-06-14T12:26:18;25.40;87.20
18577;DHT22;9418;52.694;13.294;2023-06-14T12:28:45;25.70;89.00
18577;DHT22;9418;52.694;13.294;2023-06-14T12:31:14;25.40;71.80
18577;DHT22;9418;52.694;13.294;2023-06-14T12:33:42;24.80;84.30
18577;DHT22;9418;52.694;13.294;2023-06-14T12:36:09;25.10;83.70
18577;DHT22;9418;52.694;13.294;2023-06-14T12:38:36;25.00;85.10
18577;DHT22;9418;52.694;13.294;2023-06-14T12:41:03;24.90;91.00
18577;DHT22;9418;52.694;13.294;2023-06-14T12:43:31;24.70;84.10
18577;DHT22;9418;52.694;13.294;2023-06-14T12:45:57;24.70;86.30
18577;DHT22;9418;52.694;13.294;2023-06-14T12:48:24;24.20;20.60
18577;DHT22;9418;52.694;13.294;2023-06-14T12:50:52;24.50;81.40
18577;DHT22;9418;52.694;13.294;2023-06-14T12:53:19;24.40;74.70
18577;DHT22;9418;52.694;13.294;2023-06-14T12:55:46;24.50;81.00
18577;DHT22;9418;52.694;13.294;2023-06-14T12:58:13;24.30;76.50
18577;DHT22;9418;52.694;13.294;2023-06-14T13:00:41;24.30;75.70
18577;DHT22;9418;52.694;13.294;2023-06-14T13:03:08;24.00;80.70
18577;DHT22;9418;52.694;13.294;2023-06-14T13:05:34;24.00;82.70
18577;DHT22;9418;52.694;13.294;2023-06-14T13:08:02;23.80;95.60
18577;DHT22;9418;52.694;13.294;2023-06-14T13:10:30;23.80;87.90
18577;DHT22;9418;52.694;13.294;2023-06-14T13:12:56;23.70;85.50
18577;DHT22;9418;52.694;13.294;2023-06-14T13:15:25;23.80;94.40
18577;DHT22;9418;52.694;13.294;2023-06-14T13:17:53;23.70;99.90
18577;DHT22;9418;52.694;13.294;2023-06-14T13:20:20;23.40;99.90
18577;DHT22;9418;52.694;13.294;2023-06-14T13:22:47;23.20;99.90
18577;DHT22;9418;52.694;13.294;2023-06-14T13:25:13;23.10;99.90
18577;DHT22;9418;52.694;13.294;2023-06-14T13:27:40;23.00;99.90
18577;DHT22;9418;52.694;13.294;2023-06-14T13:30:07;22.90;99.90
18577;DHT22;9418;52.694;13.294;2023-06-14T13:32:35;22.80;99.90
18577;DHT22;9418;52.694;13.294;2023-06-14T13:35:03;22.80;99.90
18577;DHT22;9418;52.694;13.294;2023-06-14T13:37:30;22.60;99.90
18577;DHT22;9418;52.694;13.294;2023-06-14T13:39:56;22.60;99.90
18577;DHT22;9418;52.694;13.294;2023-06-14T13:42:23;22.50;99.90
18577;DHT22;9418;52.694;13.294;2023-06-14T13:44:49;22.50;99.90
18577;DHT22;9418;52.694;13.294;2023-06-14T13:47:17;22.50;99.90
18577;DHT22;9418;52.694;13.294;2023-06-14T13:49:44;22.40;99.90
18577;DHT22;9418;52.694;13.294;2023-06-14T13:52:12;22.30;99.90
18577;DHT22;9418;52.694;13.294;2023-06-14T13:54:38;22.30;99.90
18577;DHT22;9418;52.694;13.294;2023-06-14T13:57:05;22.20;99.90
18577;DHT22;9418;52.694;13.294;2023-06-14T13:59:33;22.10;99.90
18577;DHT22;9418;52.694;13.294;2023-06-14T14:01:59;22.00;99.90
18577;DHT22;9418;52.694;13.294;2023-06-14T14:04:26;22.00;99.90
18577;DHT22;9418;52.694;13.294;2023-06-14T14:06:52;21.90;99.90
18577;DHT22;9418;52.694;13.294;2023-06-14T14:09:20;21.90;99.90
18577;DHT22;9418;52.694;13.294;2023-06-14T14:11:46;21.90;99.90
18577;DHT22;9418;52.694;13.294;2023-06-14T14:14:14;21.80;99.90
18577;DHT22;9418;52.694;13.294;2023-06-14T14:16:40;21.80;99.90
18577;DHT22;9418;52.694;13.294;2023-06-14T14:19:07;21.70;99.90
18577;DHT22;9418;52.694;13.294;2023-06-14T14:21:34;21.70;99.90
18577;DHT22;9418;52.694;13.294;2023-06-14T14:24:00;21.60;99.90
18577;DHT22;9418;52.694;13.294;2023-06-14T14:26:28;21.60;99.90
18577;DHT22;9418;52.694;13.294;2023-06-14T14:28:55;21.60;99.90
18577;DHT22;9418;52.694;13.294;2023-06-14T14:31:22;21.60;99.90
18577;DHT22;9418;52.694;13.294;2023-06-14T14:33:48;21.60;99.90
18577;DHT22;9418;52.694;13.294;2023-06-14T14:36:15;21.60;99.90
18577;DHT22;9418;52.694;13.294;2023-06-14T14:38:41;21.50;99.90
18577;DHT22;9418;52.694;13.294;2023-06-14T14:41:08;21.50;99.90
18577;DHT22;9418;52.694;13.294;2023-06-14T14:43:36;21.50;99.90
18577;DHT22;9418;52.694;13.294;2023-06-14T14:46:02;21.50;99.90
18577;DHT22;9418;52.694;13.294;2023-06-14T14:48:29;21.50;99.90
18577;DHT22;9418;52.694;13.294;2023-06-14T14:50:55;21.50;99.90
18577;DHT22;9418;52.694;13.294;2023-06-14T14:53:22;21.40;99.90
18577;DHT22;9418;52.694;13.294;2023-06-14T14:55:49;21.40;99.90
18577;DHT22;9418;52.694;13.294;2023-06-14T14:58:15;21.40;99.90
18577;DHT22;9418;52.694;13.294;2023-06-14T15:00:44;21.40;99.90
18577;DHT22;9418;52.694;13.294;2023-06-14T15:03:11;21.40;99.90
18577;DHT22;9418;52.694;13.294;2023-06-14T15:05:38;21.40;99.90
18577;DHT22;9418;52.694;13.294;2023-06-14T15:08:05;21.30;99.90
18577;DHT22;9418;52.694;13.294;2023-06-14T15:10:35;21.30;99.90
18577;DHT22;9418;52.694;13.294;2023-06-14T15:13:02;21.30;99.90
18577;DHT22;9418;52.694;13.294;2023-06-14T15:15:29;21.20;99.90
18577;DHT22;9418;52.694;13.294;2023-06-14T15:17:56;21.20;99.90
18577;DHT22;9418;52.694;13.294;2023-06-14T15:20:23;21.20;99.90
18577;DHT22;9418;52.694;13.294;2023-06-14T15:22:50;21.20;99.90
18577;DHT22;9418;52.694;13.294;2023-06-14T15:25:16;21.20;99.90
18577;DHT22;9418;52.694;13.294;2023-06-14T15:27:43;21.20;99.90
18577;DHT22;9418;52.694;13.294;2023-06-14T15:30:10;21.20;99.90
18577;DHT22;9418;52.694;13.294;2023-06-14T15:32:37;21.10;99.90